»·PEaware :: N54102 KMCC-KSAC

N54102 :: KMCC-KSAC

FLIGHT INFORMATION

Flight Status: Arrived
Operator: Privately registered:
United States
More flights under this callsign
Pilot: Chris B. (23589)
Aircraft: CESSNA 172 SKYHAWK
(C172)
More flights by this aircraft type
Origin: KMCC McClellan
United States
Destination: KSAC Sacramento Executive
United States
More flights between these airports :: More routes between these airports
Route: SAC
File this flight plan on PilotEdge
Remarks: Check ride prep
Altitude:
(Current/Filed)
3,000ft
Speed:
(Current/Filed)
110kts
Departed: 14-Nov-20 02:46 PM
Arrived: 14-Nov-20 03:24 PM
Distance/Time
Traveled:
10nm/0:37
Distance/Time
To Go:
Arrived

Flight Plot

Page will automatically refresh every two minutes.

Flight plan parsing failed; only flown route is shown


Map Options




Map Legend


Flown Route
Filed Route
Departure Airport
Arrival Airport
Navaid (VOR, NDB)
Fix

Horizontal Profiles

Position Reports

Time Latitude Longitude Heading Altitude Ground
Speed
14-Nov-20 14:24 38.663068 -121.397116 0 74ft 0kts
14-Nov-20 14:25 38.663068 -121.397116 0 74ft 0kts
14-Nov-20 14:26 38.663068 -121.397116 0 74ft 0kts
14-Nov-20 14:27 38.663068 -121.397116 0 74ft 0kts
14-Nov-20 14:28 38.663068 -121.397116 0 74ft 0kts
14-Nov-20 14:29 38.663068 -121.397116 0 74ft 0kts
14-Nov-20 14:30 38.663068 -121.397116 0 74ft 0kts
14-Nov-20 14:31 38.663068 -121.397116 0 74ft 0kts
14-Nov-20 14:32 38.663068 -121.397116 0 74ft 0kts
14-Nov-20 14:33 38.663068 -121.397116 0 74ft 0kts
14-Nov-20 14:34 38.663070 -121.397116 0 74ft 0kts
14-Nov-20 14:35 38.663070 -121.397116 0 74ft 0kts
14-Nov-20 14:36 38.663070 -121.397116 0 74ft 0kts
14-Nov-20 14:37 38.663113 -121.397121 350 74ft 3kts
14-Nov-20 14:38 38.661457 -121.397866 179 75ft 15kts
14-Nov-20 14:39 38.655875 -121.397872 180 74ft 18kts
14-Nov-20 14:40 38.653799 -121.399478 240 70ft 0kts
14-Nov-20 14:41 38.653799 -121.399478 240 70ft 0kts
14-Nov-20 14:42 38.653734 -121.400577 312 69ft 10kts
14-Nov-20 14:43 38.653959 -121.400680 356 69ft 0kts
14-Nov-20 14:44 38.653959 -121.400680 356 69ft 0kts
14-Nov-20 14:45 38.660373 -121.400419 5 202ft 73kts
14-Nov-20 14:46 38.672719 -121.412027 241 1086ft 88kts
14-Nov-20 14:47 38.650565 -121.424913 199 1948ft 90kts
14-Nov-20 14:48 38.625972 -121.434312 195 2699ft 94kts
14-Nov-20 14:49 38.598448 -121.441857 189 3048ft 113kts
14-Nov-20 14:50 38.566615 -121.450724 216 2984ft 120kts
14-Nov-20 14:51 38.539329 -121.474251 215 2955ft 115kts
14-Nov-20 14:52 38.513096 -121.496746 216 3025ft 112kts
14-Nov-20 14:53 38.485471 -121.515411 211 3088ft 112kts
14-Nov-20 14:54 38.458513 -121.535935 215 3083ft 112kts
14-Nov-20 14:55 38.430948 -121.554156 184 3021ft 115kts
14-Nov-20 14:56 38.399335 -121.556970 193 3002ft 112kts
14-Nov-20 14:57 38.405296 -121.576160 3 2981ft 87kts
14-Nov-20 14:58 38.426368 -121.564930 27 2455ft 80kts
14-Nov-20 14:59 38.446072 -121.551603 26 1624ft 81kts
14-Nov-20 15:00 38.464994 -121.534577 31 901ft 83kts
14-Nov-20 15:01 38.484042 -121.517930 26 611ft 82kts
14-Nov-20 15:02 38.504210 -121.502098 33 559ft 85kts
14-Nov-20 15:03 38.507590 -121.509296 191 1462ft 85kts
14-Nov-20 15:04 38.482225 -121.522908 196 1616ft 115kts
14-Nov-20 15:05 38.455757 -121.543051 211 1614ft 112kts
14-Nov-20 15:06 38.428865 -121.562945 214 1616ft 111kts
14-Nov-20 15:07 38.402066 -121.582709 194 1604ft 113kts
14-Nov-20 15:08 38.398828 -121.562439 1 1592ft 95kts
14-Nov-20 15:09 38.424613 -121.561687 1 1618ft 93kts
14-Nov-20 15:10 38.447485 -121.548064 48 1632ft 95kts
14-Nov-20 15:11 38.428937 -121.539981 211 1626ft 112kts
14-Nov-20 15:12 38.403114 -121.560306 252 1642ft 106kts
14-Nov-20 15:13 38.421575 -121.565714 18 1656ft 93kts
14-Nov-20 15:14 38.444702 -121.551117 27 1621ft 91kts
14-Nov-20 15:15 38.439220 -121.532532 214 1630ft 101kts
14-Nov-20 15:16 38.414600 -121.550368 212 1673ft 102kts
14-Nov-20 15:17 38.408528 -121.572549 359 1668ft 83kts
14-Nov-20 15:18 38.429936 -121.560469 21 1644ft 85kts
14-Nov-20 15:19 38.450101 -121.544498 31 1371ft 91kts
14-Nov-20 15:20 38.471048 -121.527818 23 943ft 88kts
14-Nov-20 15:21 38.491814 -121.511381 31 392ft 88kts
14-Nov-20 15:22 38.509543 -121.497105 29 19ft 53kts
14-Nov-20 15:23 38.513544 -121.495061 273 20ft 0kts
14-Nov-20 15:24 38.513595 -121.497374 270 20ft 0kts

Navigation Log

Ident Type
Flight plan parsing failed, navigation log unavailable